Time;durP1;ratioP1;P1;durP2;ratioP2;P2;SDS_P1;SDS_P2;PMS_P1;PMS_P2;Temp;Humidity;BMP_temperature;BMP_pressure;BME280_temperature;BME280_humidity;BME280_pressure;Samples;Min_cycle;Max_cycle;Signal;HPM_P1;HPM_P2
2021/12/31 00:00:05;;;;;;;22.48;5.00;;;12.10;99.90;;;;;;4927942;29;20051;-63
2021/12/31 00:02:31;;;;;;;19.92;5.07;;;12.20;99.90;;;;;;4909355;29;20137;-63
2021/12/31 00:04:56;;;;;;;19.60;5.05;;;12.20;99.90;;;;;;4928122;29;20112;-63
2021/12/31 00:07:22;;;;;;;24.05;4.55;;;12.20;99.90;;;;;;4910838;29;20044;-64
2021/12/31 00:09:48;;;;;;;21.87;4.27;;;12.20;99.90;;;;;;4911119;29;20058;-63
2021/12/31 00:12:14;;;;;;;19.45;4.38;;;12.20;99.90;;;;;;4926512;29;20299;-63
2021/12/31 00:14:39;;;;;;;17.98;5.00;;;12.20;99.90;;;;;;4920369;29;20040;-63
2021/12/31 00:17:06;;;;;;;23.27;4.80;;;12.20;99.90;;;;;;4892036;29;20052;-63
2021/12/31 00:19:36;;;;;;;;;;;12.20;99.90;;;;;;4923876;29;20055;-63
2021/12/31 00:22:17;;;;;;;18.70;4.40;;;12.10;99.90;;;;;;4909088;29;19948;-63
2021/12/31 00:24:43;;;;;;;19.52;4.30;;;12.20;99.90;;;;;;4918599;29;20523;-63
2021/12/31 00:27:09;;;;;;;18.30;4.38;;;12.20;99.90;;;;;;4907421;29;20052;-64
2021/12/31 00:29:34;;;;;;;24.17;4.77;;;12.20;99.90;;;;;;4891896;29;20052;-63
2021/12/31 00:32:00;;;;;;;21.90;4.40;;;12.10;99.90;;;;;;4934544;29;20044;-64
2021/12/31 00:34:25;;;;;;;21.80;5.20;;;12.10;99.90;;;;;;4927940;29;20404;-64
2021/12/31 00:36:51;;;;;;;23.37;5.03;;;12.10;99.90;;;;;;4907241;29;20583;-63
2021/12/31 00:39:17;;;;;;;23.13;5.30;;;12.10;99.90;;;;;;4907383;29;20285;-64
2021/12/31 00:41:43;;;;;;;17.92;4.32;;;12.10;99.90;;;;;;4902682;29;20037;-64
2021/12/31 00:44:08;;;;;;;23.08;5.45;;;12.10;99.90;;;;;;4889857;29;20037;-63
2021/12/31 00:46:34;;;;;;;22.48;5.05;;;12.00;99.90;;;;;;4890147;29;20446;-64
2021/12/31 00:49:03;;;;;;;19.20;5.03;;;12.00;99.90;;;;;;4904358;29;20052;-64
2021/12/31 00:51:30;;;;;;;20.55;4.97;;;12.10;99.90;;;;;;4904212;29;20052;-64
2021/12/31 00:53:55;;;;;;;20.58;4.28;;;12.00;99.90;;;;;;4889212;29;20147;-64
2021/12/31 00:56:21;;;;;;;21.88;4.80;;;12.00;99.90;;;;;;4904058;29;20112;-64
2021/12/31 00:58:47;;;;;;;18.70;4.93;;;12.00;99.90;;;;;;4904459;29;20041;-64
2021/12/31 01:01:19;;;;;;;21.20;5.47;;;12.00;99.90;;;;;;4889714;29;20068;-63
2021/12/31 01:03:45;;;;;;;23.92;5.38;;;12.00;99.90;;;;;;4914255;29;20067;-64
2021/12/31 01:06:11;;;;;;;;;;;12.00;99.90;;;;;;4908893;29;20072;-64
2021/12/31 01:08:37;;;;;;;24.17;5.22;;;11.90;99.90;;;;;;4938789;29;19997;-64
2021/12/31 01:11:03;;;;;;;25.95;5.20;;;11.90;99.90;;;;;;4907059;29;20460;-64
2021/12/31 01:13:36;;;;;;;23.35;5.03;;;11.90;99.90;;;;;;4907062;29;20103;-64
2021/12/31 01:16:04;;;;;;;21.15;5.35;;;11.90;99.90;;;;;;4938493;29;20044;-62
2021/12/31 01:21:18;;;;;;;27.48;5.00;;;11.90;99.90;;;;;;4906116;29;20111;-63
2021/12/31 01:23:44;;;;;;;25.30;4.97;;;12.00;99.90;;;;;;4907932;29;20089;-63
2021/12/31 01:26:10;;;;;;;;;;;12.00;99.90;;;;;;4908062;29;20037;-63
2021/12/31 01:28:41;;;;;;;19.00;4.78;;;11.90;99.90;;;;;;4907143;29;20384;-62
2021/12/31 01:31:07;;;;;;;26.27;4.93;;;11.90;99.90;;;;;;4908155;29;20444;-63
2021/12/31 01:33:33;;;;;;;20.98;5.25;;;11.90;99.90;;;;;;4908188;29;20040;-63
2021/12/31 01:35:58;;;;;;;20.17;4.78;;;12.00;99.90;;;;;;4936785;29;20096;-63
2021/12/31 01:38:25;;;;;;;18.70;4.60;;;12.00;99.90;;;;;;4892085;29;20053;-62
2021/12/31 01:40:51;;;;;;;20.13;4.75;;;12.00;99.90;;;;;;4903486;29;20068;-63
2021/12/31 01:43:18;;;;;;;21.83;5.03;;;12.00;99.90;;;;;;4889613;29;20044;-63
2021/12/31 01:45:53;;;;;;;23.60;5.15;;;12.00;99.90;;;;;;4924221;29;20041;-63
2021/12/31 01:50:49;;;;;;;18.27;5.07;;;12.00;99.90;;;;;;4938462;29;20088;-63
2021/12/31 01:53:16;;;;;;;19.55;5.28;;;12.00;99.90;;;;;;4922606;29;20053;-63
2021/12/31 01:55:43;;;;;;;20.85;5.03;;;12.00;99.90;;;;;;4910199;29;20060;-64
2021/12/31 01:58:09;;;;;;;27.17;5.70;;;12.10;99.90;;;;;;4910767;29;20029;-63
2021/12/31 02:00:37;;;;;;;26.45;5.32;;;12.10;99.90;;;;;;4909959;29;20063;-63
2021/12/31 02:03:05;;;;;;;20.15;4.53;;;12.00;99.90;;;;;;4909670;29;20136;-62
2021/12/31 02:05:30;;;;;;;18.58;4.63;;;12.10;99.90;;;;;;4911572;29;20055;-64
2021/12/31 02:08:00;;;;;;;16.08;4.82;;;12.10;99.90;;;;;;4908197;29;20060;-64
2021/12/31 02:10:26;;;;;;;17.40;4.18;;;12.10;99.90;;;;;;4941400;29;20052;-63
2021/12/31 02:12:52;;;;;;;;;;;12.10;99.90;;;;;;4908856;29;20041;-63
2021/12/31 02:15:20;;;;;;;19.42;5.05;;;12.00;99.90;;;;;;4911108;29;19944;-63
2021/12/31 02:17:48;;;;;;;15.60;4.18;;;12.10;99.90;;;;;;4940012;29;20063;-64
2021/12/31 02:20:15;;;;;;;24.52;5.70;;;12.10;99.90;;;;;;4909837;29;20053;-64
2021/12/31 02:22:54;;;;;;;22.25;5.22;;;12.10;99.90;;;;;;4941190;29;20060;-64
2021/12/31 02:25:22;;;;;;;20.25;4.45;;;12.10;99.90;;;;;;4911036;29;20084;-64
2021/12/31 02:27:48;;;;;;;21.25;5.28;;;12.10;99.90;;;;;;4908056;29;20091;-64
2021/12/31 02:30:14;;;;;;;16.27;4.68;;;12.10;99.90;;;;;;4910722;29;20049;-62
2021/12/31 02:32:40;;;;;;;22.77;5.15;;;12.10;99.90;;;;;;4909749;29;20103;-64
2021/12/31 02:35:08;;;;;;;18.17;4.20;;;12.10;99.90;;;;;;4914474;29;20067;-64
2021/12/31 02:37:35;;;;;;;23.35;4.90;;;12.10;99.90;;;;;;4929849;29;20040;-64
2021/12/31 02:40:08;;;;;;;17.00;5.32;;;12.10;99.90;;;;;;4910980;29;20055;-63
2021/12/31 02:42:33;;;;;;;20.23;5.70;;;12.10;99.90;;;;;;4929573;29;20161;-63
2021/12/31 02:44:59;;;;;;;19.35;5.05;;;12.20;99.90;;;;;;4929740;29;20052;-63
2021/12/31 02:47:25;;;;;;;21.80;4.95;;;12.20;99.90;;;;;;4929508;29;20067;-63
2021/12/31 02:49:51;;;;;;;21.88;5.22;;;12.20;99.90;;;;;;4911094;29;20044;-63
2021/12/31 02:52:17;;;;;;;22.73;4.65;;;12.20;99.90;;;;;;4912228;29;20048;-63
2021/12/31 02:54:46;;;;;;;19.60;4.30;;;12.20;99.90;;;;;;4929293;29;20048;-63
2021/12/31 02:57:18;;;;;;;20.08;4.57;;;12.20;99.90;;;;;;4929519;29;20044;-63
2021/12/31 02:59:45;;;;;;;17.30;4.97;;;12.30;99.90;;;;;;4927782;29;20095;-63
2021/12/31 03:02:11;;;;;;;16.15;4.88;;;12.30;99.90;;;;;;4929134;29;20107;-63
2021/12/31 03:04:39;;;;;;;13.30;3.88;;;12.30;99.90;;;;;;4911703;29;20052;-63
2021/12/31 03:07:07;;;;;;;16.65;4.85;;;12.30;99.90;;;;;;4911909;29;20220;-62
2021/12/31 03:09:35;;;;;;;15.48;3.60;;;12.30;99.90;;;;;;4926758;29;20044;-63
2021/12/31 03:12:02;;;;;;;19.13;4.40;;;12.30;99.90;;;;;;4907232;29;20079;-63
2021/12/31 03:14:31;;;;;;;14.50;4.10;;;12.30;99.90;;;;;;4912112;29;20365;-64
2021/12/31 03:16:58;;;;;;;19.13;5.22;;;12.40;99.90;;;;;;4928878;29;20056;-63
2021/12/31 03:19:24;;;;;;;16.77;3.97;;;12.40;99.90;;;;;;4929075;29;20495;-64
2021/12/31 03:21:49;;;;;;;17.50;4.07;;;12.40;99.90;;;;;;4910437;29;20088;-64
2021/12/31 03:24:15;;;;;;;15.47;5.07;;;12.40;99.90;;;;;;4928686;29;20055;-64
2021/12/31 03:26:41;;;;;;;21.52;4.38;;;12.40;99.90;;;;;;4928811;29;20080;-63
2021/12/31 03:29:06;;;;;;;16.75;3.97;;;12.40;99.90;;;;;;4927465;29;20082;-63
2021/12/31 03:31:32;;;;;;;13.82;4.60;;;12.40;99.90;;;;;;4927064;29;20075;-63
2021/12/31 03:33:58;;;;;;;14.82;4.10;;;12.40;99.90;;;;;;4928977;29;20044;-63
2021/12/31 03:36:24;;;;;;;11.05;3.75;;;12.40;99.90;;;;;;4911248;29;20152;-63
2021/12/31 03:38:50;;;;;;;;;;;12.40;99.90;;;;;;4942108;29;20090;-63
2021/12/31 03:41:16;;;;;;;15.73;4.40;;;12.30;99.90;;;;;;4945483;29;20333;-63
2021/12/31 03:43:41;;;;;;;15.02;4.18;;;12.40;99.90;;;;;;4928497;29;20424;-63
2021/12/31 03:46:07;;;;;;;12.43;4.50;;;12.40;99.90;;;;;;4934340;29;20153;-63
2021/12/31 03:48:33;;;;;;;18.52;4.68;;;12.40;99.90;;;;;;4930642;29;20624;-64
2021/12/31 03:50:59;;;;;;;11.43;4.30;;;12.40;99.90;;;;;;4929799;29;20071;-64
2021/12/31 03:53:25;;;;;;;17.30;4.20;;;12.50;99.90;;;;;;4915032;29;20036;-64
2021/12/31 03:55:50;;;;;;;16.25;4.78;;;12.40;99.90;;;;;;4926123;29;20138;-63
2021/12/31 03:58:16;;;;;;;14.52;4.38;;;12.40;99.90;;;;;;4947413;29;20054;-63
2021/12/31 04:00:42;;;;;;;13.18;4.13;;;12.40;99.90;;;;;;4947568;29;20067;-63
2021/12/31 04:03:11;;;;;;;15.45;4.13;;;12.50;99.90;;;;;;4935998;29;20040;-63
2021/12/31 04:05:39;;;;;;;20.45;4.13;;;12.50;99.90;;;;;;4909143;29;20056;-63
2021/12/31 04:08:05;;;;;;;15.88;3.60;;;12.50;99.90;;;;;;4909332;29;20051;-63
2021/12/31 04:10:31;;;;;;;16.02;3.97;;;12.50;99.90;;;;;;4909244;29;20044;-63
2021/12/31 04:12:57;;;;;;;18.13;4.35;;;12.50;99.90;;;;;;4939156;29;20175;-63
2021/12/31 04:15:24;;;;;;;13.88;3.90;;;12.50;99.90;;;;;;4894166;29;20044;-63
2021/12/31 04:17:49;;;;;;;14.05;3.88;;;12.50;99.90;;;;;;4891483;29;20048;-63
2021/12/31 04:20:21;;;;;;;11.75;3.50;;;12.40;99.90;;;;;;4909087;29;20044;-63
2021/12/31 04:22:54;;;;;;;11.25;3.60;;;12.40;99.90;;;;;;4923373;29;20048;-63
2021/12/31 04:25:21;;;;;;;11.63;3.88;;;12.40;99.90;;;;;;4924123;29;20082;-64
2021/12/31 04:27:46;;;;;;;11.25;3.15;;;12.40;99.90;;;;;;4909310;29;20045;-64
2021/12/31 04:30:12;;;;;;;12.13;3.80;;;12.50;99.90;;;;;;4908783;29;20056;-64
2021/12/31 04:32:39;;;;;;;12.70;3.83;;;12.50;99.90;;;;;;4891928;29;20049;-64
2021/12/31 04:35:06;;;;;;;17.70;4.40;;;12.50;99.90;;;;;;4909978;29;20107;-63
2021/12/31 04:37:32;;;;;;;14.48;4.18;;;12.50;99.90;;;;;;4907800;29;20057;-63
2021/12/31 04:39:58;;;;;;;14.27;4.13;;;12.50;99.90;;;;;;4928093;29;20065;-64
2021/12/31 04:42:23;;;;;;;13.40;3.95;;;12.50;99.90;;;;;;4927730;29;20380;-63
2021/12/31 04:44:49;;;;;;;14.55;3.90;;;12.50;99.90;;;;;;4910553;29;20059;-63
2021/12/31 04:47:15;;;;;;;13.20;3.45;;;12.60;99.90;;;;;;4925675;29;20048;-63
2021/12/31 04:49:40;;;;;;;12.73;3.95;;;12.60;99.90;;;;;;4927460;29;20052;-63
2021/12/31 04:52:06;;;;;;;10.07;3.30;;;12.60;99.90;;;;;;4942563;29;20063;-63
2021/12/31 04:54:32;;;;;;;11.98;3.55;;;12.60;99.90;;;;;;4927610;29;20304;-62
2021/12/31 04:56:59;;;;;;;14.88;3.30;;;12.60;99.90;;;;;;4909987;29;20127;-63
2021/12/31 04:59:25;;;;;;;11.18;3.30;;;12.60;99.90;;;;;;4910255;29;20048;-63
2021/12/31 05:01:51;;;;;;;10.65;3.80;;;12.60;99.90;;;;;;4910351;29;20134;-63
2021/12/31 05:04:17;;;;;;;12.80;3.78;;;12.70;99.90;;;;;;4910194;29;20052;-63
2021/12/31 05:06:44;;;;;;;18.02;4.07;;;12.70;99.90;;;;;;4925162;29;20063;-62
2021/12/31 05:09:10;;;;;;;14.38;3.50;;;12.60;99.90;;;;;;4908440;29;20041;-62
2021/12/31 05:11:36;;;;;;;;;;;12.60;99.90;;;;;;4909056;29;20037;-62
2021/12/31 05:14:04;;;;;;;12.25;3.38;;;12.60;99.90;;;;;;4910212;29;19934;-62
2021/12/31 05:16:30;;;;;;;5.97;2.85;;;12.60;99.90;;;;;;4927633;29;20072;-63
2021/12/31 05:18:56;;;;;;;7.38;3.13;;;12.60;99.90;;;;;;4912447;29;20045;-63
2021/12/31 05:21:21;;;;;;;14.98;3.13;;;12.60;99.90;;;;;;4906331;29;20088;-63
2021/12/31 05:23:47;;;;;;;9.88;3.70;;;12.60;99.90;;;;;;4892619;29;20080;-63
2021/12/31 05:26:13;;;;;;;8.75;3.03;;;12.60;99.90;;;;;;4946338;29;20044;-63
2021/12/31 05:28:38;;;;;;;10.45;3.08;;;12.60;99.90;;;;;;4903365;29;20063;-62
2021/12/31 05:31:05;;;;;;;6.78;3.17;;;12.60;99.90;;;;;;4913459;29;20059;-62
2021/12/31 05:33:30;;;;;;;8.98;3.13;;;12.60;99.90;;;;;;4930856;29;20044;-63
2021/12/31 05:35:59;;;;;;;6.30;3.13;;;12.60;99.90;;;;;;4913528;29;20092;-62
2021/12/31 05:38:25;;;;;;;7.30;2.97;;;12.60;99.90;;;;;;4930070;29;20280;-62
2021/12/31 05:40:51;;;;;;;11.43;3.70;;;12.60;99.90;;;;;;4945736;29;20067;-62
2021/12/31 05:43:16;;;;;;;7.72;3.20;;;12.60;99.90;;;;;;4913300;29;20064;-63
2021/12/31 05:45:42;;;;;;;6.38;3.22;;;12.50;99.90;;;;;;4930616;29;20040;-62
2021/12/31 05:48:08;;;;;;;8.73;3.47;;;12.50;99.90;;;;;;4930538;29;20044;-62
2021/12/31 05:50:33;;;;;;;5.65;3.45;;;12.50;99.90;;;;;;4929123;29;20059;-62
2021/12/31 05:53:00;;;;;;;10.38;3.40;;;12.50;99.90;;;;;;4930663;29;20131;-62
2021/12/31 05:55:27;;;;;;;10.23;3.83;;;12.50;99.90;;;;;;4913250;29;20056;-63
2021/12/31 05:57:55;;;;;;;;;;;12.50;99.90;;;;;;4913865;29;20096;-63
2021/12/31 06:00:21;;;;;;;9.07;3.25;;;12.40;99.90;;;;;;4924811;29;19923;-62
2021/12/31 06:02:47;;;;;;;9.32;3.78;;;12.50;99.90;;;;;;4909996;29;20044;-62
2021/12/31 06:05:13;;;;;;;7.03;3.40;;;12.50;99.90;;;;;;4910094;29;20080;-63
2021/12/31 06:07:39;;;;;;;11.68;4.07;;;12.50;99.90;;;;;;4911407;29;20052;-63
2021/12/31 06:10:05;;;;;;;8.05;3.45;;;12.50;99.90;;;;;;4910267;29;20040;-64
2021/12/31 06:12:33;;;;;;;12.18;4.00;;;12.50;99.90;;;;;;4898009;29;20052;-63
2021/12/31 06:15:02;;;;;;;7.40;3.40;;;12.50;99.90;;;;;;4909866;29;20056;-63
2021/12/31 06:17:28;;;;;;;10.95;3.90;;;12.60;99.90;;;;;;4911484;29;20052;-62
2021/12/31 06:19:54;;;;;;;7.28;3.38;;;12.60;99.90;;;;;;4911063;29;20047;-62
2021/12/31 06:22:21;;;;;;;7.32;3.10;;;12.60;99.90;;;;;;4912089;29;20057;-63
2021/12/31 06:24:47;;;;;;;8.52;3.50;;;12.60;99.90;;;;;;4911093;29;20053;-63
2021/12/31 06:27:13;;;;;;;8.48;3.13;;;12.60;99.90;;;;;;4911106;29;20397;-63
2021/12/31 06:29:38;;;;;;;8.57;3.97;;;12.60;99.90;;;;;;4911287;29;20051;-62
2021/12/31 06:32:05;;;;;;;10.03;3.80;;;12.60;99.90;;;;;;4911989;29;20323;-63
2021/12/31 06:34:30;;;;;;;;;;;12.60;99.90;;;;;;4911136;29;20072;-62
2021/12/31 06:36:56;;;;;;;8.13;3.13;;;12.60;99.90;;;;;;4909422;29;20014;-63
2021/12/31 06:39:26;;;;;;;11.90;3.80;;;12.60;99.90;;;;;;4908870;29;20063;-62
2021/12/31 06:41:52;;;;;;;10.68;4.00;;;12.60;99.90;;;;;;4893800;29;20564;-62
2021/12/31 06:44:20;;;;;;;9.43;3.58;;;12.60;99.90;;;;;;4911629;29;20049;-62
2021/12/31 06:46:46;;;;;;;7.10;3.25;;;12.60;99.90;;;;;;4910710;29;20055;-62
2021/12/31 06:49:11;;;;;;;8.10;3.20;;;12.50;99.90;;;;;;4910590;29;20057;-62
2021/12/31 06:51:37;;;;;;;5.05;3.47;;;12.60;99.90;;;;;;4910812;29;20112;-61
2021/12/31 06:54:03;;;;;;;10.18;3.33;;;12.50;99.90;;;;;;4894774;29;20044;-62
2021/12/31 06:56:30;;;;;;;7.00;3.42;;;12.50;99.90;;;;;;4910574;29;20037;-62
2021/12/31 06:58:55;;;;;;;7.32;3.47;;;12.60;99.90;;;;;;4897646;29;20107;-62
2021/12/31 07:01:21;;;;;;;9.65;3.33;;;12.60;99.90;;;;;;4943804;29;20072;-62
2021/12/31 07:03:47;;;;;;;5.93;3.30;;;12.60;99.90;;;;;;4909950;29;20074;-62
2021/12/31 07:06:13;;;;;;;9.52;4.05;;;12.60;99.90;;;;;;4910545;29;20055;-62
2021/12/31 07:08:39;;;;;;;7.75;3.25;;;12.60;99.90;;;;;;4910300;29;20040;-62
2021/12/31 07:11:05;;;;;;;7.53;3.10;;;12.50;99.90;;;;;;4910402;29;20057;-62
2021/12/31 07:13:31;;;;;;;6.22;3.53;;;12.50;99.90;;;;;;4910235;29;20053;-62
2021/12/31 07:15:56;;;;;;;4.05;3.05;;;12.50;99.90;;;;;;4939094;29;20063;-62
2021/12/31 07:18:23;;;;;;;7.95;3.40;;;12.50;99.90;;;;;;4911993;29;20052;-62
2021/12/31 07:20:48;;;;;;;;;;;12.50;99.90;;;;;;4929362;29;20048;-62
2021/12/31 07:23:19;;;;;;;8.43;3.05;;;12.40;99.90;;;;;;4912072;29;19923;-62
2021/12/31 07:25:45;;;;;;;6.32;3.38;;;12.50;99.90;;;;;;4921492;29;20041;-63
2021/12/31 07:28:13;;;;;;;8.23;3.25;;;12.50;99.90;;;;;;4924567;29;20084;-62
2021/12/31 07:30:39;;;;;;;5.90;3.50;;;12.50;99.90;;;;;;4910071;29;20048;-62
2021/12/31 07:33:06;;;;;;;6.32;3.28;;;12.50;99.90;;;;;;4909476;29;20044;-62
2021/12/31 07:35:31;;;;;;;;;;;12.50;99.90;;;;;;4893721;29;20053;-62
2021/12/31 07:37:59;;;;;;;7.47;3.30;;;12.30;99.90;;;;;;4893318;29;19930;-62
2021/12/31 07:40:36;;;;;;;5.78;2.95;;;12.40;99.90;;;;;;4911172;29;20089;-62
2021/12/31 07:43:02;;;;;;;7.68;3.00;;;12.40;99.90;;;;;;4928577;29;20056;-63
2021/12/31 07:45:28;;;;;;;5.38;2.95;;;12.30;99.90;;;;;;4928638;29;20048;-62
2021/12/31 07:47:55;;;;;;;6.35;3.17;;;12.30;99.90;;;;;;4901841;29;20044;-63
2021/12/31 07:50:20;;;;;;;7.40;3.30;;;12.30;99.90;;;;;;4928407;29;20123;-62
2021/12/31 07:52:46;;;;;;;7.60;2.90;;;12.30;99.90;;;;;;4927821;29;20127;-62
2021/12/31 07:55:12;;;;;;;9.90;3.65;;;12.30;99.90;;;;;;4911320;29;20111;-63
2021/12/31 07:57:37;;;;;;;9.88;3.28;;;12.30;99.90;;;;;;4927153;29;20463;-63
2021/12/31 08:00:05;;;;;;;7.28;3.10;;;12.30;99.90;;;;;;4928076;29;20119;-63
2021/12/31 08:02:31;;;;;;;9.90;3.53;;;12.30;99.90;;;;;;4928171;29;20555;-63
2021/12/31 08:04:56;;;;;;;7.40;3.00;;;12.30;99.90;;;;;;4942686;29;20086;-63
2021/12/31 08:07:22;;;;;;;9.43;3.22;;;12.40;99.90;;;;;;4927991;29;20100;-63
2021/12/31 08:09:48;;;;;;;6.47;3.20;;;12.40;99.90;;;;;;4893497;29;20064;-63
2021/12/31 08:12:13;;;;;;;7.53;2.83;;;12.30;99.90;;;;;;4907921;29;20045;-63
2021/12/31 08:14:39;;;;;;;6.20;3.55;;;12.40;99.90;;;;;;4909224;29;20055;-63
2021/12/31 08:17:05;;;;;;;4.83;2.60;;;12.30;99.90;;;;;;4909083;29;20045;-62
2021/12/31 08:19:30;;;;;;;6.78;2.90;;;12.30;99.90;;;;;;4910054;29;20305;-62
2021/12/31 08:21:56;;;;;;;9.20;3.57;;;12.30;99.90;;;;;;4909301;29;20044;-62
2021/12/31 08:24:22;;;;;;;8.57;3.08;;;12.30;99.90;;;;;;4891898;29;20415;-62
2021/12/31 08:26:47;;;;;;;6.15;2.75;;;12.30;99.90;;;;;;4909144;29;20044;-62
2021/12/31 08:29:13;;;;;;;11.50;3.60;;;12.30;99.90;;;;;;4912063;29;20044;-62
2021/12/31 08:31:40;;;;;;;6.45;3.22;;;12.40;99.90;;;;;;4927608;29;20048;-62
2021/12/31 08:34:08;;;;;;;6.60;2.67;;;12.30;99.90;;;;;;4927906;29;20048;-62
2021/12/31 08:36:34;;;;;;;9.60;3.15;;;12.40;99.90;;;;;;4927667;29;20097;-62
2021/12/31 08:39:00;;;;;;;7.07;3.35;;;12.40;99.90;;;;;;4942193;29;20048;-62
2021/12/31 08:41:26;;;;;;;6.53;3.28;;;12.50;99.90;;;;;;4927834;29;20108;-62
2021/12/31 08:43:52;;;;;;;6.45;3.00;;;12.40;99.90;;;;;;4927497;29;20411;-63
2021/12/31 08:46:18;;;;;;;6.43;2.90;;;12.50;99.90;;;;;;4910611;29;20044;-62
2021/12/31 08:48:43;;;;;;;10.13;3.42;;;12.50;99.90;;;;;;4942153;29;20280;-62
2021/12/31 08:51:09;;;;;;;10.80;3.50;;;12.50;99.90;;;;;;4908688;29;20215;-62
2021/12/31 08:53:35;;;;;;;8.63;3.35;;;12.50;99.90;;;;;;4910482;29;20192;-62
2021/12/31 08:56:00;;;;;;;5.95;3.60;;;12.50;99.90;;;;;;4910263;29;20111;-62
2021/12/31 08:58:26;;;;;;;10.82;3.00;;;12.50;99.90;;;;;;4927777;29;20368;-63
2021/12/31 09:00:52;;;;;;;6.57;3.10;;;12.60;99.90;;;;;;4926065;29;20048;-63
2021/12/31 09:03:17;;;;;;;4.53;3.00;;;12.50;99.90;;;;;;4942585;29;20296;-62
2021/12/31 09:05:43;;;;;;;7.38;3.20;;;12.60;99.90;;;;;;4910389;29;20211;-62
2021/12/31 09:08:08;;;;;;;8.35;3.38;;;12.60;99.90;;;;;;4912125;29;20041;-62
2021/12/31 09:10:34;;;;;;;6.72;3.05;;;12.60;99.90;;;;;;4913772;29;20048;-63
2021/12/31 09:13:00;;;;;;;5.93;3.50;;;12.60;99.90;;;;;;4929325;29;20148;-62
2021/12/31 09:15:25;;;;;;;9.73;3.70;;;12.60;99.90;;;;;;4911788;29;20148;-63
2021/12/31 09:17:51;;;;;;;7.00;3.30;;;12.60;99.90;;;;;;4945289;29;20300;-62
2021/12/31 09:20:17;;;;;;;9.85;3.75;;;12.60;99.90;;;;;;4931194;29;20052;-62
2021/12/31 09:22:43;;;;;;;6.60;3.40;;;12.50;99.90;;;;;;4910212;29;20049;-62
2021/12/31 09:25:09;;;;;;;6.82;3.58;;;12.60;99.90;;;;;;4910668;29;20048;-62
2021/12/31 09:27:34;;;;;;;7.80;3.28;;;12.60;99.90;;;;;;4912172;29;20135;-62
2021/12/31 09:30:00;;;;;;;7.97;3.70;;;12.60;99.90;;;;;;4912092;29;20048;-62
2021/12/31 09:32:26;;;;;;;8.10;3.70;;;12.60;99.90;;;;;;4926712;29;20304;-62
2021/12/31 09:34:52;;;;;;;7.28;3.72;;;12.60;99.90;;;;;;4907838;29;20175;-62
2021/12/31 09:37:18;;;;;;;6.32;3.08;;;12.60;99.90;;;;;;4912066;29;20059;-62
2021/12/31 09:39:49;;;;;;;7.95;3.40;;;12.60;99.90;;;;;;4926356;29;20094;-62
2021/12/31 09:42:15;;;;;;;9.70;3.67;;;12.60;99.90;;;;;;4930669;29;20048;-62
2021/12/31 09:44:43;;;;;;;9.70;3.58;;;12.60;99.90;;;;;;4909774;29;20448;-62
2021/12/31 09:47:13;;;;;;;6.28;3.25;;;12.60;99.90;;;;;;4930980;29;20064;-62
2021/12/31 09:49:39;;;;;;;5.93;3.92;;;12.60;99.90;;;;;;4930512;29;20055;-63
2021/12/31 09:52:08;;;;;;;6.15;3.25;;;12.60;99.90;;;;;;4930716;29;20051;-62
2021/12/31 09:54:34;;;;;;;13.52;3.40;;;12.60;99.90;;;;;;4897946;29;20040;-63
2021/12/31 09:57:02;;;;;;;9.65;3.65;;;12.50;99.90;;;;;;4930557;29;20079;-62
2021/12/31 09:59:28;;;;;;;8.38;3.80;;;12.50;99.90;;;;;;4930729;29;20114;-62
2021/12/31 10:01:55;;;;;;;13.52;4.07;;;12.50;99.90;;;;;;4913285;29;20072;-62
2021/12/31 10:04:22;;;;;;;12.27;3.97;;;12.50;99.90;;;;;;4913039;29;20436;-63
2021/12/31 10:07:10;;;;;;;13.68;3.88;;;12.50;99.90;;;;;;4914713;29;20052;-63
2021/12/31 10:09:38;;;;;;;11.88;4.05;;;12.40;99.90;;;;;;4910071;29;20419;-63
2021/12/31 10:12:04;;;;;;;12.38;4.28;;;12.30;99.90;;;;;;4909841;29;20052;-63
2021/12/31 10:14:39;;;;;;;7.50;3.90;;;12.20;99.90;;;;;;4893929;29;20056;-63
2021/12/31 10:17:06;;;;;;;8.75;3.90;;;12.10;99.90;;;;;;4923350;29;20048;-63
2021/12/31 10:19:32;;;;;;;12.40;5.00;;;12.10;99.90;;;;;;4930212;29;20056;-63
2021/12/31 10:21:59;;;;;;;12.27;4.65;;;12.10;99.90;;;;;;4930052;29;20172;-62
2021/12/31 10:24:26;;;;;;;13.27;4.80;;;12.00;99.90;;;;;;4897303;29;20048;-62
2021/12/31 10:26:53;;;;;;;13.25;5.00;;;12.00;99.90;;;;;;4925354;29;20079;-63
2021/12/31 10:29:20;;;;;;;14.68;5.30;;;12.00;99.90;;;;;;4911208;29;20072;-63
2021/12/31 10:31:46;;;;;;;;;;;12.00;99.90;;;;;;4911491;29;20060;-62
2021/12/31 10:34:32;;;;;;;12.75;4.63;;;11.90;99.90;;;;;;4911148;29;20014;-64
2021/12/31 10:37:03;;;;;;;6.95;4.30;;;11.90;99.90;;;;;;4905292;29;20125;-63
2021/12/31 10:39:32;;;;;;;13.07;4.93;;;11.90;99.90;;;;;;4902671;29;20115;-62
2021/12/31 10:42:05;;;;;;;13.95;4.03;;;11.90;99.90;;;;;;4911025;29;20393;-62
2021/12/31 10:44:49;;;;;;;10.48;4.68;;;11.90;99.90;;;;;;4910848;29;20048;-62
2021/12/31 10:47:19;;;;;;;11.25;4.75;;;11.90;99.90;;;;;;4909600;29;20407;-62
2021/12/31 10:50:02;;;;;;;11.43;4.40;;;11.90;99.90;;;;;;4907923;29;20186;-63
2021/12/31 10:52:35;;;;;;;9.80;4.22;;;12.00;99.90;;;;;;4910767;29;20056;-63
2021/12/31 10:55:03;;;;;;;11.95;4.40;;;12.00;99.90;;;;;;4909518;29;20414;-63
2021/12/31 10:57:39;;;;;;;14.32;4.97;;;12.00;99.90;;;;;;4912662;29;20052;-63
2021/12/31 11:00:06;;;;;;;16.75;4.78;;;12.00;99.90;;;;;;4910373;29;20072;-63
2021/12/31 11:02:33;;;;;;;10.02;4.30;;;12.00;99.90;;;;;;4910492;29;20049;-63
2021/12/31 11:04:59;;;;;;;12.20;3.90;;;12.00;99.90;;;;;;4921027;29;20052;-63
2021/12/31 11:07:28;;;;;;;12.27;5.35;;;12.00;99.90;;;;;;4929305;29;20411;-63
2021/12/31 11:09:57;;;;;;;13.82;5.10;;;12.00;99.90;;;;;;4916782;29;20048;-62
2021/12/31 11:12:23;;;;;;;9.27;4.50;;;12.00;99.90;;;;;;4912109;29;20048;-63
2021/12/31 11:14:49;;;;;;;10.85;5.38;;;12.00;99.90;;;;;;4929164;29;20052;-63
2021/12/31 11:17:14;;;;;;;17.73;5.30;;;12.00;99.90;;;;;;4927782;29;20467;-63
2021/12/31 11:19:43;;;;;;;13.33;5.20;;;12.00;99.90;;;;;;4923349;29;20084;-63
2021/12/31 11:22:11;;;;;;;10.38;5.30;;;12.00;99.90;;;;;;4940194;29;20297;-63
2021/12/31 11:24:38;;;;;;;18.17;6.28;;;12.00;99.90;;;;;;4908700;29;20067;-63
2021/12/31 11:27:26;;;;;;;9.95;5.72;;;11.90;99.90;;;;;;4940349;29;20063;-63
2021/12/31 11:29:52;;;;;;;;;;;11.90;99.90;;;;;;4910207;29;20044;-63
2021/12/31 11:32:18;;;;;;;21.42;6.18;;;11.70;99.90;;;;;;4892693;29;20006;-64
2021/12/31 11:34:44;;;;;;;11.77;6.35;;;11.80;99.90;;;;;;4920545;29;20108;-64
2021/12/31 11:37:45;;;;;;;15.27;6.55;;;11.80;99.90;;;;;;4905223;29;20053;-64
2021/12/31 11:40:30;;;;;;;14.90;6.63;;;11.70;99.90;;;;;;4891170;29;20037;-63
2021/12/31 11:43:16;;;;;;;12.88;7.22;;;11.70;99.90;;;;;;4920331;29;20655;-63
2021/12/31 11:45:42;;;;;;;15.25;6.63;;;11.70;99.90;;;;;;4921095;29;20111;-64
2021/12/31 11:48:47;;;;;;;13.10;6.38;;;11.70;99.90;;;;;;4889456;29;20090;-64
2021/12/31 11:51:17;;;;;;;14.60;6.38;;;11.70;99.90;;;;;;4883996;29;20060;-64
2021/12/31 11:54:00;;;;;;;10.73;7.07;;;11.70;99.90;;;;;;4908444;29;20053;-64
2021/12/31 11:56:39;;;;;;;17.83;6.28;;;11.60;99.90;;;;;;4909311;29;20059;-64
2021/12/31 11:59:14;;;;;;;17.92;6.53;;;11.60;99.90;;;;;;4909466;29;20056;-64
2021/12/31 12:01:43;;;;;;;14.68;6.32;;;11.60;99.90;;;;;;4895960;29;20045;-65
2021/12/31 12:04:28;;;;;;;13.57;6.30;;;11.60;99.90;;;;;;4922481;29;20117;-64
2021/12/31 12:06:55;;;;;;;13.85;6.90;;;11.60;99.90;;;;;;4892521;29;20052;-64
2021/12/31 12:09:22;;;;;;;14.48;6.82;;;11.60;99.90;;;;;;4909111;29;20057;-63
2021/12/31 12:12:05;;;;;;;18.55;6.60;;;11.60;99.90;;;;;;4907839;29;20063;-63
2021/12/31 12:14:40;;;;;;;12.57;5.80;;;11.50;99.90;;;;;;4894424;29;20060;-64
2021/12/31 12:17:07;;;;;;;12.32;6.88;;;11.50;99.90;;;;;;4904750;29;20053;-63
2021/12/31 12:19:51;;;;;;;10.73;6.20;;;11.50;99.90;;;;;;4890468;29;20146;-64
2021/12/31 12:22:40;;;;;;;10.73;6.45;;;11.50;99.90;;;;;;4904447;29;20060;-64
2021/12/31 12:25:28;;;;;;;12.10;6.80;;;11.50;99.90;;;;;;4890219;29;20048;-64
2021/12/31 12:28:09;;;;;;;9.20;6.10;;;11.50;99.90;;;;;;4890431;29;20076;-64
2021/12/31 12:30:42;;;;;;;8.32;5.53;;;11.50;99.90;;;;;;4899307;29;20043;-64
2021/12/31 12:35:38;;;;;;;10.18;5.65;;;11.50;99.90;;;;;;4911153;29;20052;-65
2021/12/31 12:38:07;;;;;;;7.72;5.47;;;11.50;99.90;;;;;;4906891;29;20128;-64
2021/12/31 12:40:42;;;;;;;10.23;5.43;;;11.50;99.90;;;;;;4939054;29;20051;-64
2021/12/31 12:43:29;;;;;;;8.60;5.50;;;11.50;99.90;;;;;;4909033;29;20099;-64
2021/12/31 12:46:05;;;;;;;10.50;6.00;;;11.60;99.90;;;;;;4905695;29;20076;-64
2021/12/31 12:48:49;;;;;;;11.55;6.28;;;11.50;99.90;;;;;;4908850;29;20051;-64
2021/12/31 12:51:31;;;;;;;9.75;6.63;;;11.50;99.90;;;;;;4908720;29;20056;-64
2021/12/31 12:53:59;;;;;;;8.82;5.95;;;11.50;99.90;;;;;;4907498;29;20071;-65